sensor_id;sensor_type;location;lat;lon;timestamp;P1;durP1;ratioP1;P2;durP2;ratioP2
9445;SDS011;4761;49.490;10.908;2023-04-03T00:01:00;2.40;;;1.53;;
9445;SDS011;4761;49.490;10.908;2023-04-03T00:03:26;1.77;;;1.33;;
9445;SDS011;4761;49.490;10.908;2023-04-03T00:05:52;2.40;;;1.70;;
9445;SDS011;4761;49.490;10.908;2023-04-03T00:08:17;2.40;;;1.60;;
9445;SDS011;4761;49.490;10.908;2023-04-03T00:10:43;3.37;;;1.57;;
9445;SDS011;4761;49.490;10.908;2023-04-03T00:13:09;2.13;;;1.40;;
9445;SDS011;4761;49.490;10.908;2023-04-03T00:15:35;2.67;;;1.60;;
9445;SDS011;4761;49.490;10.908;2023-04-03T00:18:02;2.80;;;1.70;;
9445;SDS011;4761;49.490;10.908;2023-04-03T00:20:27;2.03;;;1.47;;
9445;SDS011;4761;49.490;10.908;2023-04-03T00:22:53;2.63;;;1.50;;
9445;SDS011;4761;49.490;10.908;2023-04-03T00:25:19;2.07;;;1.43;;
9445;SDS011;4761;49.490;10.908;2023-04-03T00:27:45;3.37;;;1.80;;
9445;SDS011;4761;49.490;10.908;2023-04-03T00:30:11;4.03;;;2.13;;
9445;SDS011;4761;49.490;10.908;2023-04-03T00:32:39;2.47;;;1.60;;
9445;SDS011;4761;49.490;10.908;2023-04-03T00:35:05;2.17;;;1.57;;
9445;SDS011;4761;49.490;10.908;2023-04-03T00:37:31;3.33;;;1.80;;
9445;SDS011;4761;49.490;10.908;2023-04-03T00:39:57;3.43;;;1.87;;
9445;SDS011;4761;49.490;10.908;2023-04-03T00:42:23;2.00;;;1.57;;
9445;SDS011;4761;49.490;10.908;2023-04-03T00:47:15;2.60;;;1.70;;
9445;SDS011;4761;49.490;10.908;2023-04-03T00:49:42;2.40;;;1.70;;
9445;SDS011;4761;49.490;10.908;2023-04-03T00:52:10;3.13;;;2.03;;
9445;SDS011;4761;49.490;10.908;2023-04-03T00:54:38;2.67;;;1.90;;
9445;SDS011;4761;49.490;10.908;2023-04-03T00:57:06;2.73;;;1.80;;
9445;SDS011;4761;49.490;10.908;2023-04-03T00:59:34;3.40;;;1.97;;
9445;SDS011;4761;49.490;10.908;2023-04-03T01:02:05;2.00;;;1.80;;
9445;SDS011;4761;49.490;10.908;2023-04-03T01:04:32;2.33;;;1.80;;
9445;SDS011;4761;49.490;10.908;2023-04-03T01:07:07;2.40;;;1.60;;
9445;SDS011;4761;49.490;10.908;2023-04-03T01:09:33;2.50;;;1.40;;
9445;SDS011;4761;49.490;10.908;2023-04-03T01:14:42;2.77;;;1.60;;
9445;SDS011;4761;49.490;10.908;2023-04-03T01:19:57;2.70;;;1.77;;
9445;SDS011;4761;49.490;10.908;2023-04-03T01:25:34;1.67;;;1.37;;
9445;SDS011;4761;49.490;10.908;2023-04-03T01:28:03;1.97;;;1.50;;
9445;SDS011;4761;49.490;10.908;2023-04-03T01:30:31;2.00;;;1.30;;
9445;SDS011;4761;49.490;10.908;2023-04-03T01:33:00;1.70;;;1.13;;
9445;SDS011;4761;49.490;10.908;2023-04-03T01:35:26;1.83;;;1.30;;
9445;SDS011;4761;49.490;10.908;2023-04-03T01:37:51;1.53;;;1.20;;
9445;SDS011;4761;49.490;10.908;2023-04-03T01:40:17;1.30;;;1.20;;
9445;SDS011;4761;49.490;10.908;2023-04-03T01:42:42;1.50;;;1.10;;
9445;SDS011;4761;49.490;10.908;2023-04-03T01:45:08;2.23;;;1.40;;
9445;SDS011;4761;49.490;10.908;2023-04-03T01:47:34;1.80;;;1.27;;
9445;SDS011;4761;49.490;10.908;2023-04-03T01:50:00;1.23;;;1.10;;
9445;SDS011;4761;49.490;10.908;2023-04-03T01:52:25;0.90;;;0.90;;
9445;SDS011;4761;49.490;10.908;2023-04-03T01:54:51;2.03;;;1.17;;
9445;SDS011;4761;49.490;10.908;2023-04-03T01:57:16;1.30;;;1.20;;
9445;SDS011;4761;49.490;10.908;2023-04-03T01:59:42;1.70;;;1.20;;
9445;SDS011;4761;49.490;10.908;2023-04-03T02:02:07;1.17;;;1.07;;
9445;SDS011;4761;49.490;10.908;2023-04-03T02:04:33;1.70;;;1.10;;
9445;SDS011;4761;49.490;10.908;2023-04-03T02:06:59;1.50;;;1.00;;
9445;SDS011;4761;49.490;10.908;2023-04-03T02:09:25;1.60;;;1.10;;
9445;SDS011;4761;49.490;10.908;2023-04-03T02:11:51;2.17;;;1.27;;
9445;SDS011;4761;49.490;10.908;2023-04-03T02:14:17;1.47;;;0.97;;
9445;SDS011;4761;49.490;10.908;2023-04-03T02:16:43;1.27;;;1.00;;
9445;SDS011;4761;49.490;10.908;2023-04-03T02:19:08;0.87;;;0.87;;
9445;SDS011;4761;49.490;10.908;2023-04-03T02:21:34;1.27;;;1.10;;
9445;SDS011;4761;49.490;10.908;2023-04-03T02:23:59;1.37;;;1.27;;
9445;SDS011;4761;49.490;10.908;2023-04-03T02:26:25;1.20;;;1.03;;
9445;SDS011;4761;49.490;10.908;2023-04-03T02:28:51;1.27;;;1.10;;
9445;SDS011;4761;49.490;10.908;2023-04-03T02:31:17;1.47;;;1.10;;
9445;SDS011;4761;49.490;10.908;2023-04-03T02:33:42;0.93;;;0.90;;
9445;SDS011;4761;49.490;10.908;2023-04-03T02:36:08;1.17;;;1.07;;
9445;SDS011;4761;49.490;10.908;2023-04-03T02:38:35;1.40;;;0.90;;
9445;SDS011;4761;49.490;10.908;2023-04-03T02:41:05;0.80;;;0.80;;
9445;SDS011;4761;49.490;10.908;2023-04-03T02:43:33;1.30;;;0.90;;
9445;SDS011;4761;49.490;10.908;2023-04-03T02:45:58;1.10;;;1.00;;
9445;SDS011;4761;49.490;10.908;2023-04-03T02:48:24;1.23;;;0.97;;
9445;SDS011;4761;49.490;10.908;2023-04-03T02:50:50;1.17;;;0.90;;
9445;SDS011;4761;49.490;10.908;2023-04-03T02:53:16;1.20;;;1.10;;
9445;SDS011;4761;49.490;10.908;2023-04-03T02:55:41;1.17;;;0.97;;
9445;SDS011;4761;49.490;10.908;2023-04-03T02:58:07;0.80;;;0.73;;
9445;SDS011;4761;49.490;10.908;2023-04-03T03:00:33;1.30;;;1.00;;
9445;SDS011;4761;49.490;10.908;2023-04-03T03:02:59;0.80;;;0.80;;
9445;SDS011;4761;49.490;10.908;2023-04-03T03:05:25;1.20;;;0.93;;
9445;SDS011;4761;49.490;10.908;2023-04-03T03:07:51;0.80;;;0.77;;
9445;SDS011;4761;49.490;10.908;2023-04-03T03:10:16;2.50;;;1.10;;
9445;SDS011;4761;49.490;10.908;2023-04-03T03:12:42;1.00;;;0.90;;
9445;SDS011;4761;49.490;10.908;2023-04-03T03:15:08;1.10;;;1.00;;
9445;SDS011;4761;49.490;10.908;2023-04-03T03:17:34;1.03;;;0.90;;
9445;SDS011;4761;49.490;10.908;2023-04-03T03:20:01;0.90;;;0.90;;
9445;SDS011;4761;49.490;10.908;2023-04-03T03:22:27;0.80;;;0.80;;
9445;SDS011;4761;49.490;10.908;2023-04-03T03:24:53;2.20;;;0.87;;
9445;SDS011;4761;49.490;10.908;2023-04-03T03:27:18;1.30;;;1.00;;
9445;SDS011;4761;49.490;10.908;2023-04-03T03:29:44;0.97;;;0.87;;
9445;SDS011;4761;49.490;10.908;2023-04-03T03:32:09;1.60;;;0.90;;
9445;SDS011;4761;49.490;10.908;2023-04-03T03:34:35;0.90;;;0.80;;
9445;SDS011;4761;49.490;10.908;2023-04-03T03:37:00;1.10;;;1.00;;
9445;SDS011;4761;49.490;10.908;2023-04-03T03:39:26;1.43;;;0.90;;
9445;SDS011;4761;49.490;10.908;2023-04-03T03:41:53;1.40;;;0.87;;
9445;SDS011;4761;49.490;10.908;2023-04-03T03:44:18;1.10;;;1.00;;
9445;SDS011;4761;49.490;10.908;2023-04-03T03:46:45;0.97;;;0.87;;
9445;SDS011;4761;49.490;10.908;2023-04-03T03:49:10;0.80;;;0.80;;
9445;SDS011;4761;49.490;10.908;2023-04-03T03:51:36;2.23;;;1.10;;
9445;SDS011;4761;49.490;10.908;2023-04-03T03:54:03;0.73;;;0.70;;
9445;SDS011;4761;49.490;10.908;2023-04-03T03:56:29;1.30;;;1.00;;
9445;SDS011;4761;49.490;10.908;2023-04-03T03:58:54;1.30;;;1.13;;
9445;SDS011;4761;49.490;10.908;2023-04-03T04:01:21;2.03;;;1.23;;
9445;SDS011;4761;49.490;10.908;2023-04-03T04:03:47;2.30;;;1.30;;
9445;SDS011;4761;49.490;10.908;2023-04-03T04:06:12;1.60;;;1.20;;
9445;SDS011;4761;49.490;10.908;2023-04-03T04:08:38;1.63;;;0.90;;
9445;SDS011;4761;49.490;10.908;2023-04-03T04:11:04;1.37;;;1.00;;
9445;SDS011;4761;49.490;10.908;2023-04-03T04:13:29;1.23;;;1.00;;
9445;SDS011;4761;49.490;10.908;2023-04-03T04:15:55;1.67;;;1.10;;
9445;SDS011;4761;49.490;10.908;2023-04-03T04:18:20;1.20;;;1.03;;
9445;SDS011;4761;49.490;10.908;2023-04-03T04:20:47;1.87;;;1.20;;
9445;SDS011;4761;49.490;10.908;2023-04-03T04:23:13;1.20;;;1.10;;
9445;SDS011;4761;49.490;10.908;2023-04-03T04:25:39;1.77;;;1.17;;
9445;SDS011;4761;49.490;10.908;2023-04-03T04:28:05;1.60;;;1.23;;
9445;SDS011;4761;49.490;10.908;2023-04-03T04:30:31;1.73;;;1.33;;
9445;SDS011;4761;49.490;10.908;2023-04-03T04:32:56;1.00;;;0.90;;
9445;SDS011;4761;49.490;10.908;2023-04-03T04:35:22;1.43;;;1.27;;
9445;SDS011;4761;49.490;10.908;2023-04-03T04:37:47;1.47;;;1.17;;
9445;SDS011;4761;49.490;10.908;2023-04-03T04:40:13;2.30;;;1.10;;
9445;SDS011;4761;49.490;10.908;2023-04-03T04:42:38;1.77;;;1.27;;
9445;SDS011;4761;49.490;10.908;2023-04-03T04:45:04;1.47;;;1.10;;
9445;SDS011;4761;49.490;10.908;2023-04-03T04:47:30;2.27;;;1.20;;
9445;SDS011;4761;49.490;10.908;2023-04-03T04:49:56;1.40;;;1.00;;
9445;SDS011;4761;49.490;10.908;2023-04-03T04:52:21;1.13;;;1.03;;
9445;SDS011;4761;49.490;10.908;2023-04-03T04:54:47;2.20;;;1.30;;
9445;SDS011;4761;49.490;10.908;2023-04-03T04:57:12;1.53;;;1.30;;
9445;SDS011;4761;49.490;10.908;2023-04-03T04:59:38;1.77;;;1.10;;
9445;SDS011;4761;49.490;10.908;2023-04-03T05:02:03;1.47;;;1.10;;
9445;SDS011;4761;49.490;10.908;2023-04-03T05:04:29;1.63;;;1.30;;
9445;SDS011;4761;49.490;10.908;2023-04-03T05:06:55;1.60;;;1.27;;
9445;SDS011;4761;49.490;10.908;2023-04-03T05:09:20;1.43;;;1.10;;
9445;SDS011;4761;49.490;10.908;2023-04-03T05:11:47;2.60;;;1.30;;
9445;SDS011;4761;49.490;10.908;2023-04-03T05:14:12;1.57;;;1.03;;
9445;SDS011;4761;49.490;10.908;2023-04-03T05:16:38;1.60;;;1.00;;
9445;SDS011;4761;49.490;10.908;2023-04-03T05:19:03;3.87;;;1.43;;
9445;SDS011;4761;49.490;10.908;2023-04-03T05:21:29;1.83;;;1.20;;
9445;SDS011;4761;49.490;10.908;2023-04-03T05:23:57;1.23;;;1.00;;
9445;SDS011;4761;49.490;10.908;2023-04-03T05:26:28;2.37;;;1.37;;
9445;SDS011;4761;49.490;10.908;2023-04-03T05:28:54;2.50;;;1.47;;
9445;SDS011;4761;49.490;10.908;2023-04-03T05:31:20;3.43;;;1.60;;
9445;SDS011;4761;49.490;10.908;2023-04-03T05:33:46;2.87;;;1.60;;
9445;SDS011;4761;49.490;10.908;2023-04-03T05:36:12;2.67;;;1.60;;
9445;SDS011;4761;49.490;10.908;2023-04-03T05:38:38;2.30;;;1.50;;
9445;SDS011;4761;49.490;10.908;2023-04-03T05:41:04;6.37;;;2.67;;
9445;SDS011;4761;49.490;10.908;2023-04-03T05:43:29;6.93;;;3.40;;
9445;SDS011;4761;49.490;10.908;2023-04-03T05:45:55;8.27;;;4.20;;
9445;SDS011;4761;49.490;10.908;2023-04-03T05:48:21;3.43;;;2.20;;
9445;SDS011;4761;49.490;10.908;2023-04-03T05:50:46;3.30;;;1.90;;
9445;SDS011;4761;49.490;10.908;2023-04-03T05:53:31;2.93;;;2.00;;
9445;SDS011;4761;49.490;10.908;2023-04-03T05:55:58;7.03;;;3.30;;
9445;SDS011;4761;49.490;10.908;2023-04-03T05:58:23;12.60;;;6.97;;
9445;SDS011;4761;49.490;10.908;2023-04-03T06:00:49;8.50;;;5.60;;
9445;SDS011;4761;49.490;10.908;2023-04-03T06:03:14;12.77;;;6.60;;
9445;SDS011;4761;49.490;10.908;2023-04-03T06:05:40;9.73;;;4.73;;
9445;SDS011;4761;49.490;10.908;2023-04-03T06:08:06;4.93;;;2.80;;
9445;SDS011;4761;49.490;10.908;2023-04-03T06:10:32;5.67;;;2.70;;
9445;SDS011;4761;49.490;10.908;2023-04-03T06:12:57;3.47;;;2.30;;
9445;SDS011;4761;49.490;10.908;2023-04-03T06:15:23;4.63;;;2.50;;
9445;SDS011;4761;49.490;10.908;2023-04-03T06:17:49;4.60;;;2.43;;
9445;SDS011;4761;49.490;10.908;2023-04-03T06:20:15;4.17;;;2.70;;
9445;SDS011;4761;49.490;10.908;2023-04-03T06:22:41;3.83;;;2.70;;
9445;SDS011;4761;49.490;10.908;2023-04-03T06:25:07;4.30;;;2.90;;
9445;SDS011;4761;49.490;10.908;2023-04-03T06:27:32;3.77;;;2.70;;
9445;SDS011;4761;49.490;10.908;2023-04-03T06:29:58;3.33;;;2.40;;
9445;SDS011;4761;49.490;10.908;2023-04-03T06:32:24;2.27;;;1.90;;
9445;SDS011;4761;49.490;10.908;2023-04-03T06:34:50;3.40;;;2.60;;
9445;SDS011;4761;49.490;10.908;2023-04-03T06:37:20;2.50;;;2.10;;
9445;SDS011;4761;49.490;10.908;2023-04-03T06:39:46;3.17;;;2.77;;
9445;SDS011;4761;49.490;10.908;2023-04-03T06:42:14;3.73;;;3.43;;
9445;SDS011;4761;49.490;10.908;2023-04-03T06:44:39;3.00;;;2.50;;
9445;SDS011;4761;49.490;10.908;2023-04-03T06:47:05;2.77;;;2.57;;
9445;SDS011;4761;49.490;10.908;2023-04-03T06:49:31;2.77;;;2.53;;
9445;SDS011;4761;49.490;10.908;2023-04-03T06:51:56;2.63;;;2.43;;
9445;SDS011;4761;49.490;10.908;2023-04-03T06:54:22;4.80;;;3.00;;
9445;SDS011;4761;49.490;10.908;2023-04-03T06:56:48;3.87;;;3.30;;
9445;SDS011;4761;49.490;10.908;2023-04-03T06:59:15;3.97;;;2.23;;
9445;SDS011;4761;49.490;10.908;2023-04-03T07:01:40;2.20;;;1.63;;
9445;SDS011;4761;49.490;10.908;2023-04-03T07:04:07;3.60;;;2.00;;
9445;SDS011;4761;49.490;10.908;2023-04-03T07:06:33;3.55;;;1.90;;
9445;SDS011;4761;49.490;10.908;2023-04-03T07:08:59;4.23;;;1.93;;
9445;SDS011;4761;49.490;10.908;2023-04-03T07:11:25;2.70;;;1.90;;
9445;SDS011;4761;49.490;10.908;2023-04-03T07:13:51;2.50;;;2.03;;
9445;SDS011;4761;49.490;10.908;2023-04-03T07:16:17;2.40;;;1.90;;
9445;SDS011;4761;49.490;10.908;2023-04-03T07:18:43;2.23;;;1.60;;
9445;SDS011;4761;49.490;10.908;2023-04-03T07:21:09;2.75;;;1.90;;
9445;SDS011;4761;49.490;10.908;2023-04-03T07:23:35;2.37;;;1.90;;
9445;SDS011;4761;49.490;10.908;2023-04-03T07:26:01;3.60;;;2.10;;
9445;SDS011;4761;49.490;10.908;2023-04-03T07:28:27;3.60;;;2.10;;
9445;SDS011;4761;49.490;10.908;2023-04-03T07:30:53;3.83;;;2.07;;
9445;SDS011;4761;49.490;10.908;2023-04-03T07:33:27;3.00;;;2.10;;
9445;SDS011;4761;49.490;10.908;2023-04-03T07:35:53;3.83;;;2.00;;
9445;SDS011;4761;49.490;10.908;2023-04-03T07:38:19;3.20;;;2.13;;
9445;SDS011;4761;49.490;10.908;2023-04-03T07:40:46;2.10;;;1.80;;
9445;SDS011;4761;49.490;10.908;2023-04-03T07:43:12;2.63;;;2.00;;
9445;SDS011;4761;49.490;10.908;2023-04-03T07:45:38;2.60;;;1.70;;
9445;SDS011;4761;49.490;10.908;2023-04-03T07:48:04;2.47;;;1.70;;
9445;SDS011;4761;49.490;10.908;2023-04-03T07:50:30;3.10;;;1.90;;
9445;SDS011;4761;49.490;10.908;2023-04-03T07:52:57;3.73;;;2.80;;
9445;SDS011;4761;49.490;10.908;2023-04-03T07:55:23;2.93;;;2.27;;
9445;SDS011;4761;49.490;10.908;2023-04-03T07:57:49;2.87;;;1.83;;
9445;SDS011;4761;49.490;10.908;2023-04-03T08:00:14;3.40;;;1.97;;
9445;SDS011;4761;49.490;10.908;2023-04-03T08:02:42;2.43;;;1.97;;
9445;SDS011;4761;49.490;10.908;2023-04-03T08:05:09;2.27;;;1.90;;
9445;SDS011;4761;49.490;10.908;2023-04-03T08:07:36;2.40;;;1.90;;
9445;SDS011;4761;49.490;10.908;2023-04-03T08:10:02;2.43;;;1.83;;
9445;SDS011;4761;49.490;10.908;2023-04-03T08:12:28;3.20;;;2.30;;
9445;SDS011;4761;49.490;10.908;2023-04-03T08:14:54;1.97;;;1.43;;
9445;SDS011;4761;49.490;10.908;2023-04-03T08:17:20;2.33;;;1.90;;
9445;SDS011;4761;49.490;10.908;2023-04-03T08:19:46;2.43;;;1.70;;
9445;SDS011;4761;49.490;10.908;2023-04-03T08:22:12;2.87;;;1.90;;
9445;SDS011;4761;49.490;10.908;2023-04-03T08:24:37;3.37;;;1.53;;
9445;SDS011;4761;49.490;10.908;2023-04-03T08:27:03;2.00;;;1.60;;
9445;SDS011;4761;49.490;10.908;2023-04-03T08:29:28;2.60;;;1.43;;
9445;SDS011;4761;49.490;10.908;2023-04-03T08:31:54;2.47;;;1.67;;
9445;SDS011;4761;49.490;10.908;2023-04-03T08:34:20;2.27;;;1.50;;
9445;SDS011;4761;49.490;10.908;2023-04-03T08:36:46;2.30;;;1.60;;
9445;SDS011;4761;49.490;10.908;2023-04-03T08:39:12;2.40;;;1.63;;
9445;SDS011;4761;49.490;10.908;2023-04-03T08:41:38;6.03;;;1.83;;
9445;SDS011;4761;49.490;10.908;2023-04-03T08:44:15;7.13;;;1.83;;
9445;SDS011;4761;49.490;10.908;2023-04-03T08:46:52;5.63;;;2.17;;
9445;SDS011;4761;49.490;10.908;2023-04-03T08:51:51;5.20;;;2.10;;
9445;SDS011;4761;49.490;10.908;2023-04-03T08:54:30;4.27;;;1.83;;
9445;SDS011;4761;49.490;10.908;2023-04-03T08:57:00;7.57;;;2.60;;
9445;SDS011;4761;49.490;10.908;2023-04-03T08:59:32;8.40;;;2.33;;
9445;SDS011;4761;49.490;10.908;2023-04-03T09:02:00;6.70;;;2.43;;
9445;SDS011;4761;49.490;10.908;2023-04-03T09:04:37;4.37;;;2.10;;
9445;SDS011;4761;49.490;10.908;2023-04-03T09:07:05;3.93;;;2.10;;
9445;SDS011;4761;49.490;10.908;2023-04-03T09:09:40;5.50;;;2.83;;
9445;SDS011;4761;49.490;10.908;2023-04-03T09:12:12;5.03;;;2.07;;
9445;SDS011;4761;49.490;10.908;2023-04-03T09:14:55;2.63;;;1.67;;
9445;SDS011;4761;49.490;10.908;2023-04-03T09:20:15;2.87;;;2.03;;
9445;SDS011;4761;49.490;10.908;2023-04-03T09:22:43;3.20;;;1.90;;
9445;SDS011;4761;49.490;10.908;2023-04-03T09:25:17;4.07;;;1.90;;
9445;SDS011;4761;49.490;10.908;2023-04-03T09:27:46;3.97;;;2.40;;
9445;SDS011;4761;49.490;10.908;2023-04-03T09:30:16;5.73;;;2.30;;
9445;SDS011;4761;49.490;10.908;2023-04-03T09:32:48;4.17;;;1.90;;
9445;SDS011;4761;49.490;10.908;2023-04-03T09:37:53;3.87;;;2.03;;
9445;SDS011;4761;49.490;10.908;2023-04-03T09:43:18;2.97;;;2.00;;
9445;SDS011;4761;49.490;10.908;2023-04-03T09:45:50;2.33;;;1.77;;
9445;SDS011;4761;49.490;10.908;2023-04-03T09:48:18;3.67;;;1.80;;
9445;SDS011;4761;49.490;10.908;2023-04-03T09:56:02;3.20;;;1.67;;
9445;SDS011;4761;49.490;10.908;2023-04-03T09:58:39;2.23;;;1.57;;
9445;SDS011;4761;49.490;10.908;2023-04-03T10:01:09;5.87;;;2.13;;
9445;SDS011;4761;49.490;10.908;2023-04-03T10:04:04;3.10;;;1.90;;
9445;SDS011;4761;49.490;10.908;2023-04-03T10:06:44;3.43;;;2.00;;
9445;SDS011;4761;49.490;10.908;2023-04-03T10:09:23;3.57;;;2.10;;
9445;SDS011;4761;49.490;10.908;2023-04-03T10:12:00;2.70;;;1.90;;
9445;SDS011;4761;49.490;10.908;2023-04-03T10:14:38;3.53;;;2.00;;
9445;SDS011;4761;49.490;10.908;2023-04-03T10:19:53;2.93;;;1.90;;
9445;SDS011;4761;49.490;10.908;2023-04-03T10:25:20;3.53;;;1.80;;
9445;SDS011;4761;49.490;10.908;2023-04-03T10:28:02;3.67;;;2.07;;
9445;SDS011;4761;49.490;10.908;2023-04-03T10:30:41;2.17;;;1.80;;
9445;SDS011;4761;49.490;10.908;2023-04-03T10:36:12;3.40;;;2.20;;
9445;SDS011;4761;49.490;10.908;2023-04-03T10:38:51;2.70;;;1.67;;
9445;SDS011;4761;49.490;10.908;2023-04-03T10:47:21;3.70;;;2.40;;
9445;SDS011;4761;49.490;10.908;2023-04-03T10:52:48;4.30;;;2.20;;
9445;SDS011;4761;49.490;10.908;2023-04-03T10:55:43;4.37;;;3.00;;
9445;SDS011;4761;49.490;10.908;2023-04-03T10:58:26;3.07;;;2.30;;
9445;SDS011;4761;49.490;10.908;2023-04-03T11:00:57;4.27;;;2.60;;
9445;SDS011;4761;49.490;10.908;2023-04-03T11:03:31;3.50;;;2.60;;
9445;SDS011;4761;49.490;10.908;2023-04-03T11:06:01;3.70;;;2.47;;
9445;SDS011;4761;49.490;10.908;2023-04-03T11:11:35;4.57;;;3.17;;
9445;SDS011;4761;49.490;10.908;2023-04-03T11:14:28;4.07;;;3.10;;
9445;SDS011;4761;49.490;10.908;2023-04-03T11:17:01;5.80;;;2.80;;
9445;SDS011;4761;49.490;10.908;2023-04-03T11:22:43;4.60;;;3.33;;
9445;SDS011;4761;49.490;10.908;2023-04-03T11:25:29;5.97;;;3.97;;
9445;SDS011;4761;49.490;10.908;2023-04-03T11:28:01;8.03;;;4.20;;
9445;SDS011;4761;49.490;10.908;2023-04-03T11:33:30;6.00;;;4.10;;
9445;SDS011;4761;49.490;10.908;2023-04-03T11:36:18;5.77;;;3.97;;
9445;SDS011;4761;49.490;10.908;2023-04-03T11:38:47;6.53;;;3.73;;
9445;SDS011;4761;49.490;10.908;2023-04-03T11:41:16;4.63;;;3.80;;
9445;SDS011;4761;49.490;10.908;2023-04-03T11:43:56;6.17;;;3.80;;
9445;SDS011;4761;49.490;10.908;2023-04-03T11:55:08;5.17;;;3.70;;
9445;SDS011;4761;49.490;10.908;2023-04-03T12:03:29;4.37;;;3.30;;
9445;SDS011;4761;49.490;10.908;2023-04-03T12:17:11;4.13;;;2.83;;
9445;SDS011;4761;49.490;10.908;2023-04-03T12:29:27;11.50;;;2.80;;
9445;SDS011;4761;49.490;10.908;2023-04-03T12:32:06;6.00;;;3.20;;
9445;SDS011;4761;49.490;10.908;2023-04-03T12:40:51;7.83;;;2.67;;
9445;SDS011;4761;49.490;10.908;2023-04-03T12:43:40;4.50;;;2.70;;
9445;SDS011;4761;49.490;10.908;2023-04-03T12:46:24;4.10;;;2.70;;
9445;SDS011;4761;49.490;10.908;2023-04-03T12:48:58;7.37;;;2.50;;
9445;SDS011;4761;49.490;10.908;2023-04-03T12:54:04;5.40;;;2.40;;
9445;SDS011;4761;49.490;10.908;2023-04-03T12:56:38;4.37;;;2.07;;
9445;SDS011;4761;49.490;10.908;2023-04-03T12:59:18;4.83;;;2.00;;
9445;SDS011;4761;49.490;10.908;2023-04-03T13:01:58;3.30;;;1.97;;
9445;SDS011;4761;49.490;10.908;2023-04-03T13:04:29;4.27;;;2.10;;
9445;SDS011;4761;49.490;10.908;2023-04-03T13:06:56;4.03;;;1.70;;
9445;SDS011;4761;49.490;10.908;2023-04-03T13:09:24;2.83;;;1.73;;
9445;SDS011;4761;49.490;10.908;2023-04-03T13:11:58;2.87;;;1.80;;
9445;SDS011;4761;49.490;10.908;2023-04-03T13:14:34;3.97;;;1.80;;
9445;SDS011;4761;49.490;10.908;2023-04-03T13:17:09;3.70;;;1.77;;
9445;SDS011;4761;49.490;10.908;2023-04-03T13:19:38;3.63;;;1.60;;
9445;SDS011;4761;49.490;10.908;2023-04-03T13:22:05;2.20;;;1.60;;
9445;SDS011;4761;49.490;10.908;2023-04-03T13:24:51;3.57;;;1.70;;
9445;SDS011;4761;49.490;10.908;2023-04-03T13:27:18;2.70;;;1.73;;
9445;SDS011;4761;49.490;10.908;2023-04-03T13:29:48;3.73;;;1.70;;
9445;SDS011;4761;49.490;10.908;2023-04-03T13:32:18;1.70;;;1.40;;
9445;SDS011;4761;49.490;10.908;2023-04-03T13:34:47;4.10;;;1.70;;
9445;SDS011;4761;49.490;10.908;2023-04-03T13:37:28;1.93;;;1.53;;
9445;SDS011;4761;49.490;10.908;2023-04-03T13:42:33;2.73;;;1.60;;
9445;SDS011;4761;49.490;10.908;2023-04-03T13:48:15;2.40;;;1.57;;
9445;SDS011;4761;49.490;10.908;2023-04-03T13:50:57;4.90;;;1.70;;
9445;SDS011;4761;49.490;10.908;2023-04-03T13:53:29;4.27;;;1.63;;
9445;SDS011;4761;49.490;10.908;2023-04-03T13:58:28;3.13;;;2.13;;
9445;SDS011;4761;49.490;10.908;2023-04-03T14:00:58;6.50;;;2.30;;
9445;SDS011;4761;49.490;10.908;2023-04-03T14:03:47;7.13;;;2.40;;
9445;SDS011;4761;49.490;10.908;2023-04-03T14:06:16;4.70;;;2.10;;
9445;SDS011;4761;49.490;10.908;2023-04-03T14:08:43;5.13;;;2.40;;
9445;SDS011;4761;49.490;10.908;2023-04-03T14:11:14;4.70;;;2.60;;
9445;SDS011;4761;49.490;10.908;2023-04-03T14:13:42;4.30;;;2.50;;
9445;SDS011;4761;49.490;10.908;2023-04-03T14:16:11;5.97;;;2.73;;
9445;SDS011;4761;49.490;10.908;2023-04-03T14:18:41;5.57;;;2.57;;
9445;SDS011;4761;49.490;10.908;2023-04-03T14:21:09;6.63;;;2.87;;
9445;SDS011;4761;49.490;10.908;2023-04-03T14:23:37;3.97;;;2.23;;
9445;SDS011;4761;49.490;10.908;2023-04-03T14:26:02;7.40;;;2.73;;
9445;SDS011;4761;49.490;10.908;2023-04-03T14:28:31;4.00;;;2.23;;
9445;SDS011;4761;49.490;10.908;2023-04-03T14:30:57;6.50;;;2.60;;
9445;SDS011;4761;49.490;10.908;2023-04-03T14:33:22;4.27;;;2.07;;
9445;SDS011;4761;49.490;10.908;2023-04-03T14:35:48;4.30;;;2.10;;
9445;SDS011;4761;49.490;10.908;2023-04-03T14:38:22;5.17;;;2.33;;
9445;SDS011;4761;49.490;10.908;2023-04-03T14:40:54;4.53;;;2.13;;
9445;SDS011;4761;49.490;10.908;2023-04-03T14:43:20;5.50;;;1.80;;
9445;SDS011;4761;49.490;10.908;2023-04-03T14:45:46;5.40;;;2.27;;
9445;SDS011;4761;49.490;10.908;2023-04-03T14:48:15;3.30;;;1.80;;
9445;SDS011;4761;49.490;10.908;2023-04-03T14:50:44;3.47;;;1.97;;
9445;SDS011;4761;49.490;10.908;2023-04-03T14:53:10;3.73;;;2.10;;
9445;SDS011;4761;49.490;10.908;2023-04-03T14:55:39;3.87;;;2.20;;
9445;SDS011;4761;49.490;10.908;2023-04-03T14:58:13;3.53;;;1.90;;
9445;SDS011;4761;49.490;10.908;2023-04-03T15:00:40;2.93;;;1.90;;
9445;SDS011;4761;49.490;10.908;2023-04-03T15:03:06;4.53;;;2.03;;
9445;SDS011;4761;49.490;10.908;2023-04-03T15:05:34;3.50;;;1.93;;
9445;SDS011;4761;49.490;10.908;2023-04-03T15:08:01;3.80;;;2.00;;
9445;SDS011;4761;49.490;10.908;2023-04-03T15:10:27;3.07;;;1.80;;
9445;SDS011;4761;49.490;10.908;2023-04-03T15:12:54;4.30;;;1.90;;
9445;SDS011;4761;49.490;10.908;2023-04-03T15:15:21;2.90;;;1.60;;
9445;SDS011;4761;49.490;10.908;2023-04-03T15:17:52;3.50;;;1.80;;
9445;SDS011;4761;49.490;10.908;2023-04-03T15:20:20;2.97;;;1.50;;
9445;SDS011;4761;49.490;10.908;2023-04-03T15:22:47;2.20;;;1.53;;
9445;SDS011;4761;49.490;10.908;2023-04-03T15:25:13;3.13;;;1.60;;
9445;SDS011;4761;49.490;10.908;2023-04-03T15:27:39;3.63;;;2.13;;
9445;SDS011;4761;49.490;10.908;2023-04-03T15:30:10;3.83;;;1.73;;
9445;SDS011;4761;49.490;10.908;2023-04-03T15:32:41;4.20;;;1.90;;
9445;SDS011;4761;49.490;10.908;2023-04-03T15:35:06;2.83;;;1.60;;
9445;SDS011;4761;49.490;10.908;2023-04-03T15:37:32;1.87;;;1.37;;
9445;SDS011;4761;49.490;10.908;2023-04-03T15:39:58;3.40;;;1.60;;
9445;SDS011;4761;49.490;10.908;2023-04-03T15:42:23;3.20;;;1.47;;
9445;SDS011;4761;49.490;10.908;2023-04-03T15:44:49;2.97;;;1.50;;
9445;SDS011;4761;49.490;10.908;2023-04-03T15:47:14;10.63;;;2.80;;
9445;SDS011;4761;49.490;10.908;2023-04-03T15:49:40;6.77;;;2.40;;
9445;SDS011;4761;49.490;10.908;2023-04-03T15:52:06;10.27;;;2.43;;
9445;SDS011;4761;49.490;10.908;2023-04-03T15:54:31;5.90;;;1.93;;
9445;SDS011;4761;49.490;10.908;2023-04-03T15:56:57;4.27;;;2.00;;
9445;SDS011;4761;49.490;10.908;2023-04-03T15:59:22;6.07;;;2.13;;
9445;SDS011;4761;49.490;10.908;2023-04-03T16:01:48;4.53;;;1.83;;
9445;SDS011;4761;49.490;10.908;2023-04-03T16:04:15;5.77;;;2.20;;
9445;SDS011;4761;49.490;10.908;2023-04-03T16:06:41;4.43;;;1.90;;
9445;SDS011;4761;49.490;10.908;2023-04-03T16:09:07;4.10;;;2.17;;
9445;SDS011;4761;49.490;10.908;2023-04-03T16:11:33;3.50;;;2.03;;
9445;SDS011;4761;49.490;10.908;2023-04-03T16:14:01;6.20;;;2.10;;
9445;SDS011;4761;49.490;10.908;2023-04-03T16:16:26;8.13;;;2.10;;
9445;SDS011;4761;49.490;10.908;2023-04-03T16:18:53;3.30;;;1.60;;
9445;SDS011;4761;49.490;10.908;2023-04-03T16:21:20;4.23;;;1.80;;
9445;SDS011;4761;49.490;10.908;2023-04-03T16:23:46;5.30;;;2.10;;
9445;SDS011;4761;49.490;10.908;2023-04-03T16:26:11;3.83;;;1.73;;
9445;SDS011;4761;49.490;10.908;2023-04-03T16:28:37;4.23;;;1.63;;
9445;SDS011;4761;49.490;10.908;2023-04-03T16:31:02;3.40;;;1.70;;
9445;SDS011;4761;49.490;10.908;2023-04-03T16:33:30;3.73;;;2.10;;
9445;SDS011;4761;49.490;10.908;2023-04-03T16:35:55;4.83;;;1.77;;
9445;SDS011;4761;49.490;10.908;2023-04-03T16:38:21;4.37;;;1.60;;
9445;SDS011;4761;49.490;10.908;2023-04-03T16:40:47;2.33;;;1.70;;
9445;SDS011;4761;49.490;10.908;2023-04-03T16:43:14;3.37;;;1.70;;
9445;SDS011;4761;49.490;10.908;2023-04-03T16:45:40;4.17;;;1.70;;
9445;SDS011;4761;49.490;10.908;2023-04-03T16:48:07;4.33;;;1.60;;
9445;SDS011;4761;49.490;10.908;2023-04-03T16:50:32;2.67;;;1.73;;
9445;SDS011;4761;49.490;10.908;2023-04-03T16:52:58;1.97;;;1.50;;